createdAt,value
2024-04-13T00:00:46.760Z,11.22
2024-04-13T00:03:34.573Z,11.19
2024-04-13T00:06:02.633Z,11.20
2024-04-13T00:08:30.458Z,11.20
2024-04-13T00:10:58.247Z,11.19
2024-04-13T00:13:28.174Z,11.18
2024-04-13T00:15:56.938Z,11.18
2024-04-13T00:18:25.045Z,11.16
2024-04-13T00:20:52.826Z,11.13
2024-04-13T00:23:20.536Z,11.10
2024-04-13T00:25:52.434Z,11.04
2024-04-13T00:28:20.235Z,10.98
2024-04-13T00:30:47.942Z,10.93
2024-04-13T00:33:15.925Z,10.91
2024-04-13T00:35:44.109Z,10.86
2024-04-13T00:38:15.348Z,10.81
2024-04-13T00:40:43.269Z,10.77
2024-04-13T00:43:12.707Z,10.76
2024-04-13T00:45:44.945Z,10.75
2024-04-13T00:48:20.892Z,10.73
2024-04-13T00:50:55.168Z,10.66
2024-04-13T00:53:23.130Z,10.58
2024-04-13T00:55:51.151Z,10.55
2024-04-13T00:58:26.340Z,10.56
2024-04-13T01:00:58.295Z,10.53
2024-04-13T01:03:27.262Z,10.53
2024-04-13T01:05:56.733Z,10.54
2024-04-13T01:08:25.763Z,10.55
2024-04-13T01:10:53.781Z,10.57
2024-04-13T01:13:22.383Z,10.59
2024-04-13T01:15:50.158Z,10.61
2024-04-13T01:18:18.198Z,10.65
2024-04-13T01:20:46.168Z,10.69
2024-04-13T01:23:15.811Z,10.72
2024-04-13T01:25:43.743Z,10.72
2024-04-13T01:28:13.722Z,10.71
2024-04-13T01:30:41.814Z,10.73
2024-04-13T01:33:10.858Z,10.74
2024-04-13T01:35:39.985Z,10.77
2024-04-13T01:38:07.869Z,10.80
2024-04-13T01:40:35.608Z,10.81
2024-04-13T01:43:03.421Z,10.82
2024-04-13T01:45:31.196Z,10.84
2024-04-13T01:47:59.027Z,10.86
2024-04-13T01:50:26.897Z,10.86
2024-04-13T01:52:54.695Z,10.87
2024-04-13T01:55:22.639Z,10.85
2024-04-13T01:57:50.475Z,10.81
2024-04-13T02:00:19.331Z,10.75
2024-04-13T02:02:47.539Z,10.73
2024-04-13T02:05:15.426Z,10.70
2024-04-13T02:07:43.249Z,10.66
2024-04-13T02:10:11.334Z,10.59
2024-04-13T02:12:39.089Z,10.53
2024-04-13T02:15:07.201Z,10.44
2024-04-13T02:17:35.451Z,10.37
2024-04-13T02:20:04.036Z,10.26
2024-04-13T02:22:36.424Z,10.17
2024-04-13T02:25:04.449Z,10.08
2024-04-13T02:27:32.708Z,9.94
2024-04-13T02:30:01.057Z,9.86
2024-04-13T02:32:29.730Z,9.76
2024-04-13T02:34:57.521Z,9.66
2024-04-13T02:37:25.286Z,9.59
2024-04-13T02:39:53.084Z,9.54
2024-04-13T02:42:20.912Z,9.47
2024-04-13T02:44:48.830Z,9.42
2024-04-13T02:47:16.636Z,9.36
2024-04-13T02:49:44.385Z,9.32
2024-04-13T02:52:12.122Z,9.29
2024-04-13T02:54:39.805Z,9.25
2024-04-13T02:57:07.512Z,9.21
2024-04-13T02:59:35.441Z,9.18
2024-04-13T03:02:03.178Z,9.16
2024-04-13T03:04:32.362Z,9.13
2024-04-13T03:07:03.299Z,9.09
2024-04-13T03:09:31.078Z,9.05
2024-04-13T03:11:58.929Z,9.04
2024-04-13T03:14:28.882Z,9.14
2024-04-13T03:16:56.661Z,9.20
2024-04-13T03:19:25.159Z,9.19
2024-04-13T03:21:53.076Z,9.17
2024-04-13T03:24:20.883Z,9.19
2024-04-13T03:26:48.614Z,9.18
2024-04-13T03:29:16.445Z,9.19
2024-04-13T03:31:44.254Z,9.17
2024-04-13T03:34:12.060Z,9.16
2024-04-13T03:36:41.541Z,9.18
2024-04-13T03:39:09.337Z,9.19
2024-04-13T03:41:37.108Z,9.20
2024-04-13T03:44:05.097Z,9.21
2024-04-13T03:46:32.885Z,9.26
2024-04-13T03:49:00.689Z,9.33
2024-04-13T03:51:28.683Z,9.40
2024-04-13T03:53:57.738Z,9.45
2024-04-13T03:56:25.531Z,9.49
2024-04-13T03:58:53.767Z,9.53
2024-04-13T04:01:21.661Z,9.55
2024-04-13T04:03:50.265Z,9.58
2024-04-13T04:06:19.261Z,9.61
2024-04-13T04:08:47.013Z,9.61
2024-04-13T04:11:14.683Z,9.57
2024-04-13T04:13:42.544Z,9.55
2024-04-13T04:16:10.414Z,9.54
2024-04-13T04:18:38.325Z,9.53
2024-04-13T04:21:06.385Z,9.52
2024-04-13T04:23:34.252Z,9.54
2024-04-13T04:26:03.142Z,9.61
2024-04-13T04:28:31.045Z,9.63
2024-04-13T04:31:12.318Z,9.66
2024-04-13T04:33:40.339Z,9.73
2024-04-13T04:36:10.050Z,9.79
2024-04-13T04:38:38.156Z,9.88
2024-04-13T04:41:06.135Z,10.04
2024-04-13T04:43:34.022Z,10.17
2024-04-13T04:46:01.970Z,10.26
2024-04-13T04:48:30.070Z,10.36
2024-04-13T04:50:59.060Z,10.50
2024-04-13T04:53:29.732Z,10.63
2024-04-13T04:56:00.576Z,10.79
2024-04-13T04:58:28.621Z,10.94
2024-04-13T05:00:56.450Z,11.11
2024-04-13T05:03:26.096Z,11.27
2024-04-13T05:05:54.070Z,11.46
2024-04-13T05:08:22.080Z,11.64
2024-04-13T05:10:50.138Z,11.83
2024-04-13T05:13:18.737Z,12.02
2024-04-13T05:15:46.489Z,12.20
2024-04-13T05:18:14.502Z,12.38
2024-04-13T05:20:42.386Z,12.55
2024-04-13T05:23:10.177Z,12.71
2024-04-13T05:25:37.933Z,12.82
2024-04-13T05:28:05.845Z,12.94
2024-04-13T05:30:33.653Z,13.08
2024-04-13T05:33:02.095Z,13.21
2024-04-13T05:35:30.338Z,13.36
2024-04-13T05:37:58.104Z,13.51
2024-04-13T05:40:26.259Z,13.71
2024-04-13T05:42:54.074Z,13.92
2024-04-13T05:45:21.984Z,14.10
2024-04-13T05:47:50.313Z,14.30
2024-04-13T05:50:18.166Z,14.58
2024-04-13T05:52:46.182Z,14.81
2024-04-13T05:55:14.068Z,15.06
2024-04-13T05:57:41.963Z,15.30
2024-04-13T06:00:10.680Z,15.65
2024-04-13T06:02:39.024Z,16.05
2024-04-13T06:05:07.190Z,16.45
2024-04-13T06:07:35.237Z,16.82
2024-04-13T06:10:06.075Z,17.12
2024-04-13T06:12:34.018Z,17.34
2024-04-13T06:15:02.075Z,17.47
2024-04-13T06:17:29.934Z,17.48
2024-04-13T06:19:57.674Z,17.63
2024-04-13T06:22:25.487Z,17.75
2024-04-13T06:24:54.058Z,17.85
2024-04-13T06:27:22.223Z,17.91
2024-04-13T06:29:51.295Z,17.96
2024-04-13T06:32:19.399Z,18.06
2024-04-13T06:34:48.120Z,18.17
2024-04-13T06:37:16.072Z,18.30
2024-04-13T06:39:44.016Z,18.50
2024-04-13T06:42:11.903Z,18.72
2024-04-13T06:44:39.824Z,18.95
2024-04-13T06:47:07.822Z,19.19
2024-04-13T06:49:35.953Z,19.39
2024-04-13T06:52:04.213Z,19.64
2024-04-13T06:54:32.221Z,19.96
2024-04-13T06:56:59.970Z,20.15
2024-04-13T06:59:27.702Z,20.31
2024-04-13T07:01:55.509Z,20.57
2024-04-13T07:04:23.401Z,20.85
2024-04-13T07:06:51.270Z,21.12
2024-04-13T07:09:21.894Z,21.36
2024-04-13T07:11:49.830Z,21.55
2024-04-13T07:14:17.635Z,21.69
2024-04-13T07:16:45.969Z,21.85
2024-04-13T07:19:13.798Z,21.98
2024-04-13T07:21:41.763Z,22.15
2024-04-13T07:24:09.709Z,22.21
2024-04-13T07:26:37.523Z,22.12
2024-04-13T07:29:05.291Z,22.07
2024-04-13T07:31:33.168Z,22.14
2024-04-13T07:34:01.004Z,22.21
2024-04-13T07:36:28.889Z,22.36
2024-04-13T07:38:56.743Z,22.68
2024-04-13T07:41:24.641Z,22.98
2024-04-13T07:43:52.548Z,23.17
2024-04-13T07:46:22.105Z,23.41
2024-04-13T07:48:49.951Z,23.28
2024-04-13T07:51:17.890Z,23.00
2024-04-13T07:53:45.703Z,22.86
2024-04-13T07:56:15.401Z,22.85
2024-04-13T07:58:43.453Z,22.84
2024-04-13T08:01:11.398Z,22.79
2024-04-13T08:03:39.242Z,22.74
2024-04-13T08:06:07.422Z,22.65
2024-04-13T08:08:35.246Z,22.63
2024-04-13T08:11:07.246Z,22.30
2024-04-13T08:13:35.057Z,22.21
2024-04-13T08:16:09.050Z,22.46
2024-04-13T08:18:37.735Z,22.72
2024-04-13T08:21:05.540Z,23.04
2024-04-13T08:23:33.481Z,23.26
2024-04-13T08:26:04.931Z,23.32
2024-04-13T08:28:32.943Z,23.34
2024-04-13T08:31:05.752Z,23.45
2024-04-13T08:33:34.146Z,23.38
2024-04-13T08:36:06.727Z,23.15
2024-04-13T08:38:34.446Z,23.05
2024-04-13T08:41:13.751Z,23.08
2024-04-13T08:43:41.526Z,23.37
2024-04-13T08:46:09.731Z,23.67
2024-04-13T08:48:40.107Z,23.81
2024-04-13T08:51:11.132Z,23.76
2024-04-13T08:53:43.812Z,23.63
2024-04-13T08:56:12.592Z,23.74
2024-04-13T08:58:43.387Z,23.80
2024-04-13T09:01:17.213Z,23.91
2024-04-13T09:03:45.565Z,24.12
2024-04-13T09:06:14.027Z,24.33
2024-04-13T09:08:43.982Z,24.46
2024-04-13T09:11:12.049Z,24.80
2024-04-13T09:13:42.186Z,25.07
2024-04-13T09:16:10.660Z,25.06
2024-04-13T09:18:41.459Z,25.07
2024-04-13T09:21:09.503Z,24.90
2024-04-13T09:23:37.394Z,25.08
2024-04-13T09:26:06.827Z,25.63
2024-04-13T09:28:42.373Z,26.23
2024-04-13T09:31:12.097Z,26.93
2024-04-13T09:33:40.275Z,27.20
2024-04-13T09:36:11.339Z,27.75
2024-04-13T09:38:39.378Z,28.48
2024-04-13T09:41:08.319Z,28.27
2024-04-13T09:43:37.175Z,27.84
2024-04-13T09:46:06.077Z,27.86
2024-04-13T09:48:33.964Z,27.81
2024-04-13T09:51:02.113Z,27.76
2024-04-13T09:53:31.045Z,27.69
2024-04-13T09:55:59.346Z,27.75
2024-04-13T09:58:27.251Z,27.81
2024-04-13T10:00:55.828Z,28.05
2024-04-13T10:03:23.867Z,28.09
2024-04-13T10:05:55.285Z,27.92
2024-04-13T10:08:28.767Z,27.71
2024-04-13T10:10:57.779Z,27.63
2024-04-13T10:13:30.790Z,27.79
2024-04-13T10:16:00.213Z,27.80
2024-04-13T10:18:28.560Z,27.67
2024-04-13T10:21:06.578Z,27.78
2024-04-13T10:23:41.743Z,27.83
2024-04-13T10:26:10.025Z,28.03
2024-04-13T10:28:39.221Z,28.08
2024-04-13T10:31:18.247Z,28.23
2024-04-13T10:33:57.151Z,28.13
2024-04-13T10:36:33.494Z,28.20
2024-04-13T10:39:06.234Z,28.20
2024-04-13T10:41:39.091Z,28.00
2024-04-13T10:44:08.598Z,27.62
2024-04-13T10:46:36.435Z,26.99
2024-04-13T10:49:05.280Z,26.61
2024-04-13T10:51:33.344Z,26.37
2024-04-13T10:54:02.351Z,26.36
2024-04-13T10:56:31.093Z,26.42
2024-04-13T10:58:58.933Z,26.61
2024-04-13T11:01:26.947Z,26.82
2024-04-13T11:04:06.349Z,27.06
2024-04-13T11:06:34.159Z,27.18
2024-04-13T11:09:02.140Z,27.26
2024-04-13T11:11:30.191Z,27.14
2024-04-13T11:13:58.173Z,27.01
2024-04-13T11:16:26.321Z,27.13
2024-04-13T11:18:54.861Z,27.03
2024-04-13T11:21:24.118Z,27.09
2024-04-13T11:23:52.455Z,26.79
2024-04-13T11:26:21.667Z,26.46
2024-04-13T11:28:49.554Z,26.08
2024-04-13T11:31:17.430Z,25.72
2024-04-13T11:33:45.383Z,25.91
2024-04-13T11:36:19.464Z,25.79
2024-04-13T11:38:48.087Z,25.35
2024-04-13T11:41:18.075Z,25.28
2024-04-13T11:43:53.931Z,25.62
2024-04-13T11:46:21.963Z,25.67
2024-04-13T11:48:51.386Z,25.71
2024-04-13T11:51:20.617Z,25.78
2024-04-13T11:53:50.834Z,25.76
2024-04-13T11:56:20.215Z,25.53
2024-04-13T11:58:52.858Z,25.42
2024-04-13T12:01:22.172Z,25.60
2024-04-13T12:03:50.043Z,25.42
2024-04-13T12:06:18.039Z,25.19
2024-04-13T12:08:45.818Z,25.22
2024-04-13T12:11:13.577Z,25.41
2024-04-13T12:13:41.424Z,25.49
2024-04-13T12:16:09.201Z,25.55
2024-04-13T12:18:37.164Z,25.36
2024-04-13T12:21:05.720Z,25.17
2024-04-13T12:23:33.878Z,25.36
2024-04-13T12:26:02.368Z,25.61
2024-04-13T12:28:30.171Z,26.03
2024-04-13T12:30:57.926Z,26.54
2024-04-13T12:33:25.868Z,27.18
2024-04-13T12:35:59.666Z,27.60
2024-04-13T12:38:28.854Z,27.82
2024-04-13T12:40:56.633Z,28.14
2024-04-13T12:43:24.370Z,28.16
2024-04-13T12:45:52.411Z,26.94
2024-04-13T12:48:20.331Z,26.07
2024-04-13T12:50:48.278Z,25.93
2024-04-13T12:53:16.097Z,25.58
2024-04-13T12:55:43.846Z,25.50
2024-04-13T12:58:13.586Z,25.26
2024-04-13T13:00:41.327Z,25.14
2024-04-13T13:03:09.688Z,25.19
2024-04-13T13:05:37.957Z,25.45
2024-04-13T13:08:05.928Z,25.51
2024-04-13T13:10:34.855Z,25.62
2024-04-13T13:13:02.630Z,25.52
2024-04-13T13:15:30.390Z,25.77
2024-04-13T13:17:58.204Z,26.59
2024-04-13T13:20:26.289Z,26.69
2024-04-13T13:22:54.028Z,26.26
2024-04-13T13:25:21.791Z,25.82
2024-04-13T13:27:50.663Z,25.52
2024-04-13T13:30:18.550Z,25.36
2024-04-13T13:32:46.690Z,25.55
2024-04-13T13:35:14.492Z,25.81
2024-04-13T13:37:42.280Z,26.02
2024-04-13T13:40:12.493Z,25.90
2024-04-13T13:42:40.356Z,25.94
2024-04-13T13:45:08.126Z,25.60
2024-04-13T13:47:35.963Z,25.04
2024-04-13T13:50:04.054Z,24.96
2024-04-13T13:52:31.941Z,24.91
2024-04-13T13:54:59.810Z,24.98
2024-04-13T13:57:27.910Z,25.06
2024-04-13T13:59:55.740Z,24.72
2024-04-13T14:02:24.227Z,24.29
2024-04-13T14:04:52.260Z,24.16
2024-04-13T14:07:20.110Z,24.03
2024-04-13T14:09:50.080Z,23.94
2024-04-13T14:12:18.009Z,23.98
2024-04-13T14:14:45.778Z,24.06
2024-04-13T14:17:13.462Z,24.10
2024-04-13T14:19:41.249Z,24.11
2024-04-13T14:22:10.442Z,23.97
2024-04-13T14:24:39.241Z,23.91
2024-04-13T14:27:07.013Z,23.82
2024-04-13T14:29:34.817Z,23.65
2024-04-13T14:32:02.675Z,23.40
2024-04-13T14:34:30.509Z,23.38
2024-04-13T14:36:58.492Z,23.45
2024-04-13T14:39:26.253Z,23.44
2024-04-13T14:41:53.998Z,23.37
2024-04-13T14:44:21.827Z,23.13
2024-04-13T14:46:49.615Z,22.78
2024-04-13T14:49:20.775Z,22.57
2024-04-13T14:51:48.799Z,22.50
2024-04-13T14:54:16.617Z,22.53
2024-04-13T14:56:47.012Z,22.59
2024-04-13T14:59:14.749Z,22.67
2024-04-13T15:01:42.860Z,22.71
2024-04-13T15:04:10.857Z,22.78
2024-04-13T15:06:38.939Z,22.84
2024-04-13T15:09:06.860Z,22.80
2024-04-13T15:11:34.824Z,22.79
2024-04-13T15:14:02.678Z,22.73
2024-04-13T15:16:30.466Z,22.59
2024-04-13T15:18:58.578Z,22.54
2024-04-13T15:21:26.451Z,22.48
2024-04-13T15:23:56.388Z,22.42
2024-04-13T15:26:26.148Z,22.32
2024-04-13T15:28:55.159Z,22.21
2024-04-13T15:31:26.461Z,22.10
2024-04-13T15:33:54.342Z,22.03
2024-04-13T15:36:22.290Z,21.97
2024-04-13T15:38:50.031Z,21.89
2024-04-13T15:41:17.884Z,21.84
2024-04-13T15:43:46.060Z,21.78
2024-04-13T15:46:13.890Z,21.70
2024-04-13T15:48:41.763Z,21.65
2024-04-13T15:51:09.693Z,21.61
2024-04-13T15:53:37.457Z,21.55
2024-04-13T15:56:06.172Z,21.48
2024-04-13T15:58:33.930Z,21.40
2024-04-13T16:01:02.977Z,21.32
2024-04-13T16:03:30.834Z,21.26
2024-04-13T16:05:58.782Z,21.20
2024-04-13T16:08:26.513Z,21.17
2024-04-13T16:10:54.370Z,21.13
2024-04-13T16:13:22.270Z,21.03
2024-04-13T16:15:50.134Z,20.91
2024-04-13T16:18:18.020Z,20.84
2024-04-13T16:20:46.784Z,20.77
2024-04-13T16:23:16.040Z,20.67
2024-04-13T16:25:43.784Z,20.61
2024-04-13T16:28:11.706Z,20.53
2024-04-13T16:30:39.609Z,20.41
2024-04-13T16:33:09.396Z,20.30
2024-04-13T16:35:37.270Z,20.19
2024-04-13T16:38:05.318Z,20.14
2024-04-13T16:40:33.132Z,20.05
2024-04-13T16:43:01.005Z,19.96
2024-04-13T16:45:28.886Z,19.91
2024-04-13T16:47:56.793Z,19.83
2024-04-13T16:50:24.760Z,19.74
2024-04-13T16:52:52.530Z,19.64
2024-04-13T16:55:20.352Z,19.51
2024-04-13T16:57:48.130Z,19.39
2024-04-13T17:00:15.896Z,19.30
2024-04-13T17:02:44.568Z,19.22
2024-04-13T17:05:12.351Z,19.10
2024-04-13T17:07:40.041Z,18.99
2024-04-13T17:10:08.099Z,18.88
2024-04-13T17:12:35.997Z,18.76
2024-04-13T17:15:06.936Z,18.65
2024-04-13T17:17:35.017Z,18.52
2024-04-13T17:20:02.972Z,18.40
2024-04-13T17:22:30.792Z,18.29
2024-04-13T17:24:58.490Z,18.19
2024-04-13T17:27:26.442Z,18.09
2024-04-13T17:29:54.317Z,17.99
2024-04-13T17:32:22.037Z,17.88
2024-04-13T17:34:49.941Z,17.77
2024-04-13T17:37:17.698Z,17.67
2024-04-13T17:39:45.617Z,17.60
2024-04-13T17:42:13.502Z,17.49
2024-04-13T17:44:41.404Z,17.38
2024-04-13T17:47:09.188Z,17.28
2024-04-13T17:49:38.105Z,17.17
2024-04-13T17:52:05.931Z,17.06
2024-04-13T17:54:33.792Z,16.94
2024-04-13T17:57:01.588Z,16.83
2024-04-13T17:59:29.406Z,16.72
2024-04-13T18:01:57.198Z,16.61
2024-04-13T18:04:24.987Z,16.51
2024-04-13T18:06:52.852Z,16.44
2024-04-13T18:09:20.687Z,16.36
2024-04-13T18:11:48.532Z,16.27
2024-04-13T18:14:16.325Z,16.19
2024-04-13T18:16:44.169Z,16.13
2024-04-13T18:19:12.300Z,16.06
2024-04-13T18:21:40.197Z,15.98
2024-04-13T18:24:08.937Z,15.91
2024-04-13T18:26:36.769Z,15.83
2024-04-13T18:29:04.525Z,15.77
2024-04-13T18:31:32.769Z,15.70
2024-04-13T18:34:03.721Z,15.64
2024-04-13T18:36:33.882Z,15.65
2024-04-13T18:39:01.668Z,15.65
2024-04-13T18:41:29.800Z,15.61
2024-04-13T18:43:57.665Z,15.54
2024-04-13T18:46:25.943Z,15.47
2024-04-13T18:48:53.746Z,15.39
2024-04-13T18:51:21.586Z,15.31
2024-04-13T18:53:49.388Z,15.23
2024-04-13T18:56:17.125Z,15.16
2024-04-13T18:58:45.057Z,15.14
2024-04-13T19:01:13.388Z,15.11
2024-04-13T19:03:41.534Z,15.08
2024-04-13T19:06:10.728Z,15.02
2024-04-13T19:08:38.701Z,14.95
2024-04-13T19:11:06.502Z,14.92
2024-04-13T19:13:34.224Z,14.89
2024-04-13T19:16:09.317Z,14.86
2024-04-13T19:18:40.122Z,14.78
2024-04-13T19:21:09.209Z,14.70
2024-04-13T19:23:37.178Z,14.60
2024-04-13T19:26:05.002Z,14.52
2024-04-13T19:28:32.788Z,14.45
2024-04-13T19:31:00.910Z,14.38
2024-04-13T19:33:29.968Z,14.33
2024-04-13T19:35:57.998Z,14.29
2024-04-13T19:38:26.460Z,14.25
2024-04-13T19:40:54.227Z,14.27
2024-04-13T19:43:22.062Z,14.28
2024-04-13T19:45:50.054Z,14.29
2024-04-13T19:48:18.145Z,14.27
2024-04-13T19:50:45.944Z,14.24
2024-04-13T19:53:13.755Z,14.22
2024-04-13T19:55:41.577Z,14.21
2024-04-13T19:58:09.428Z,14.19
2024-04-13T20:00:37.604Z,14.17
2024-04-13T20:03:05.944Z,14.15
2024-04-13T20:05:35.190Z,14.15
2024-04-13T20:08:04.104Z,14.15
2024-04-13T20:10:32.125Z,14.15
2024-04-13T20:13:00.146Z,14.13
2024-04-13T20:15:46.447Z,14.11
2024-04-13T20:18:32.752Z,14.07
2024-04-13T20:21:00.562Z,14.01
2024-04-13T20:23:28.295Z,13.94
2024-04-13T20:25:56.072Z,13.87
2024-04-13T20:28:23.949Z,13.84
2024-04-13T20:30:51.950Z,13.80
2024-04-13T20:33:21.508Z,13.73
2024-04-13T20:35:52.417Z,13.66
2024-04-13T20:38:20.615Z,13.61
2024-04-13T20:40:48.612Z,13.54
2024-04-13T20:43:16.408Z,13.49
2024-04-13T20:45:44.142Z,13.42
2024-04-13T20:48:12.313Z,13.35
2024-04-13T20:50:41.561Z,13.28
2024-04-13T20:53:09.640Z,13.21
2024-04-13T20:55:37.418Z,13.14
2024-04-13T20:58:05.192Z,13.09
2024-04-13T21:00:36.404Z,13.03
2024-04-13T21:03:04.523Z,13.01
2024-04-13T21:05:33.962Z,13.08
2024-04-13T21:08:03.066Z,13.12
2024-04-13T21:10:31.238Z,13.13
2024-04-13T21:13:01.035Z,13.13
2024-04-13T21:15:35.111Z,13.15
2024-04-13T21:18:05.913Z,13.17
2024-04-13T21:20:33.843Z,13.16
2024-04-13T21:23:01.699Z,13.18
2024-04-13T21:25:29.654Z,13.19
2024-04-13T21:27:58.522Z,13.19
2024-04-13T21:30:26.459Z,13.20
2024-04-13T21:32:54.238Z,13.19
2024-04-13T21:35:22.095Z,13.17
2024-04-13T21:37:57.199Z,13.15
2024-04-13T21:40:28.606Z,13.15
2024-04-13T21:42:56.427Z,13.14
2024-04-13T21:45:24.227Z,13.13
2024-04-13T21:47:52.078Z,13.12
2024-04-13T21:50:20.819Z,13.08
2024-04-13T21:52:48.595Z,13.04
2024-04-13T21:55:17.086Z,13.02
2024-04-13T21:57:44.862Z,12.96
2024-04-13T22:00:15.474Z,12.90
2024-04-13T22:02:43.181Z,12.86
2024-04-13T22:05:10.987Z,12.81
2024-04-13T22:07:38.780Z,12.76
2024-04-13T22:10:08.517Z,12.68
2024-04-13T22:12:36.211Z,12.59
2024-04-13T22:15:05.296Z,12.51
2024-04-13T22:17:33.165Z,12.41
2024-04-13T22:20:01.388Z,12.33
2024-04-13T22:22:29.184Z,12.29
2024-04-13T22:24:57.326Z,12.31
2024-04-13T22:27:25.185Z,12.32
2024-04-13T22:29:54.978Z,12.32
2024-04-13T22:32:22.743Z,12.31
2024-04-13T22:34:50.542Z,12.28
2024-04-13T22:37:19.696Z,12.24
2024-04-13T22:39:47.490Z,12.25
2024-04-13T22:42:15.479Z,12.24
2024-04-13T22:44:43.564Z,12.23
2024-04-13T22:47:12.619Z,12.21
2024-04-13T22:49:40.472Z,12.18
2024-04-13T22:52:08.250Z,12.13
2024-04-13T22:54:36.277Z,12.08
2024-04-13T22:57:04.688Z,12.04
2024-04-13T22:59:32.755Z,11.98
2024-04-13T23:02:00.859Z,11.94
2024-04-13T23:04:28.878Z,11.88
2024-04-13T23:06:57.187Z,11.83
2024-04-13T23:09:25.034Z,11.77
2024-04-13T23:11:52.795Z,11.73
2024-04-13T23:14:20.530Z,11.71
2024-04-13T23:16:48.274Z,11.75
2024-04-13T23:19:16.182Z,11.76
2024-04-13T23:21:44.037Z,11.75
2024-04-13T23:24:11.809Z,11.72
2024-04-13T23:26:40.841Z,11.70
2024-04-13T23:29:08.642Z,11.70
2024-04-13T23:31:41.697Z,11.68
2024-04-13T23:34:09.423Z,11.66
2024-04-13T23:36:38.797Z,11.64
2024-04-13T23:39:11.317Z,11.64
2024-04-13T23:41:39.080Z,11.64
2024-04-13T23:44:13.591Z,11.62
2024-04-13T23:46:42.407Z,11.51
2024-04-13T23:49:10.361Z,11.43
2024-04-13T23:51:38.258Z,11.36
2024-04-13T23:54:06.292Z,11.29
2024-04-13T23:56:34.862Z,11.25
2024-04-13T23:59:02.702Z,11.21
